This is the latest recevied weather packets stored in our database for station/object W2SBL-1. If no packets are shown the sender has not sent any weather packets the latest 10 day(s).
| Time | Temp. | Humidity | Pressure | Rain* | Wind** | Luminosity | Snow |
|---|---|---|---|---|---|---|---|
| 1788186488 | 28.33° C | 52% | 1019.7 hPa | - | - | - | - |
| 1788185588 | 28.33° C | 51% | 1019.7 hPa | - | - | - | - |
| 1788184688 | 27.78° C | 52% | 1019.6 hPa | - | - | - | - |
| 1788183788 | 27.22° C | 53% | 1019.4 hPa | - | - | - | - |
| 1788182888 | 27.22° C | 52% | 1019.4 hPa | - | - | - | - |
| 1788181988 | 26.67° C | 53% | 1024 hPa | - | - | - | - |
| 1788181088 | 26.11° C | 53% | 1019.3 hPa | - | - | - | - |
| 1788180188 | 25.56° C | 54% | 1019.2 hPa | - | - | - | - |
| 1788179288 | 10.56° C | 54% | 996.3 hPa | - | - | - | - |
| 1788174787 | 23.89° C | 56% | 1018.8 hPa | - | - | - | - |
| 1788173887 | 23.89° C | 57% | 1018.7 hPa | - | - | - | - |
| 1788172987 | 23.89° C | 56% | 1018.5 hPa | - | - | - | - |
| 1788172087 | 23.89° C | 56% | 1018.5 hPa | - | - | - | - |
| 1788171187 | 23.89° C | 56% | 1018.3 hPa | - | - | - | - |
| 1788170287 | 23.89° C | 57% | 1018.2 hPa | - | - | - | - |
| 1788169387 | 23.89° C | 57% | 1018.1 hPa | - | - | - | - |
| 1788168487 | 23.89° C | 57% | 1017.9 hPa | - | - | - | - |
| 1788167586 | 23.89° C | 57% | 1018 hPa | - | - | - | - |
| 1788166687 | 23.89° C | 56% | 1018 hPa | - | - | - | - |
| 1788165786 | 24.44° C | 56% | 1018 hPa | - | - | - | - |
| 1788164886 | 24.44° C | 56% | 1018 hPa | - | - | - | - |
| 1788163986 | 24.44° C | 56% | 1017.8 hPa | - | - | - | - |
| 1788163086 | 23.89° C | 56% | 1018 hPa | - | - | - | - |
| 1788162186 | 23.89° C | 57% | 1018 hPa | - | - | - | - |
| 1788161294 | 24.44° C | 57% | 1018 hPa | - | - | - | - |
* Rain since midnight (hover to see other rain measurements)
** Current wind speed in m/s (hover to see current wind gust speed)